Time;durP1;ratioP1;P1;durP2;ratioP2;P2;SDS_P1;SDS_P2;PMS_P1;PMS_P2;Temp;Humidity;BMP_temperature;BMP_pressure;BME280_temperature;BME280_humidity;BME280_pressure;Samples;Min_cycle;Max_cycle;Signal;HPM_P1;HPM_P2
2021/11/03 00:01:48;;;;;;;4.47;0.75;;;23.40;71.10;;;;;;5070419;28;20040;-60
2021/11/03 00:04:15;;;;;;;2.90;0.98;;;23.40;70.50;;;;;;5071898;28;20107;-61
2021/11/03 00:06:44;;;;;;;3.83;0.75;;;23.40;71.00;;;;;;5068613;28;20486;-63
2021/11/03 00:09:12;;;;;;;2.78;0.77;;;23.40;71.60;;;;;;5072714;28;20034;-61
2021/11/03 00:11:40;;;;;;;3.45;0.98;;;23.40;71.40;;;;;;5072500;28;20060;-63
2021/11/03 00:14:08;;;;;;;2.08;0.55;;;23.50;71.50;;;;;;5073235;28;20036;-62
2021/11/03 00:16:35;;;;;;;5.80;0.93;;;23.50;70.90;;;;;;5068217;28;20025;-67
2021/11/03 00:19:04;;;;;;;3.78;0.90;;;23.60;70.40;;;;;;5073316;28;20029;-60
2021/11/03 00:21:32;;;;;;;2.03;1.00;;;23.60;70.40;;;;;;5072522;28;20509;-62
2021/11/03 00:24:02;;;;;;;2.28;0.68;;;23.60;70.30;;;;;;5072102;28;20116;-63
2021/11/03 00:26:29;;;;;;;4.18;0.98;;;23.60;70.50;;;;;;5067533;28;20070;-64
2021/11/03 00:28:57;;;;;;;3.45;0.90;;;23.60;70.30;;;;;;5072085;28;20029;-60
2021/11/03 00:31:25;;;;;;;3.80;0.82;;;23.60;70.50;;;;;;5069689;28;20452;-60
2021/11/03 00:33:52;;;;;;;4.78;1.30;;;23.60;70.70;;;;;;5071867;28;20033;-61
2021/11/03 00:36:20;;;;;;;3.35;0.95;;;23.70;70.20;;;;;;5068235;28;20036;-64
2021/11/03 00:38:47;;;;;;;5.47;0.90;;;23.70;69.70;;;;;;5072267;28;20035;-60
2021/11/03 00:41:15;;;;;;;3.10;1.23;;;23.70;70.00;;;;;;5071143;28;20070;-61
2021/11/03 00:43:42;;;;;;;2.65;0.90;;;23.70;69.20;;;;;;5072064;28;20032;-59
2021/11/03 00:46:09;;;;;;;1.95;0.60;;;23.70;69.60;;;;;;5068163;28;20017;-62
2021/11/03 00:48:37;;;;;;;3.28;0.60;;;23.70;69.50;;;;;;5071310;28;20017;-61
2021/11/03 00:51:04;;;;;;;3.22;0.90;;;23.70;69.00;;;;;;5067773;28;20097;-61
2021/11/03 00:53:32;;;;;;;4.28;0.90;;;23.80;69.20;;;;;;5071584;28;20040;-63
2021/11/03 00:55:59;;;;;;;3.03;0.75;;;23.80;68.40;;;;;;5068491;28;20059;-61
2021/11/03 00:58:27;;;;;;;4.45;1.40;;;23.90;68.80;;;;;;5070609;28;20017;-63
2021/11/03 01:00:54;;;;;;;1.90;0.65;;;23.80;68.40;;;;;;5071597;28;20029;-62
2021/11/03 01:03:22;;;;;;;5.95;1.20;;;23.80;68.60;;;;;;5071212;28;20074;-56
2021/11/03 01:05:49;;;;;;;3.30;0.90;;;23.90;68.40;;;;;;5068955;28;20023;-67
2021/11/03 01:08:16;;;;;;;4.15;1.35;;;23.80;68.90;;;;;;5069187;28;20063;-66
2021/11/03 01:10:47;;;;;;;3.50;0.70;;;23.80;68.70;;;;;;5071257;28;20127;-63
2021/11/03 01:13:16;;;;;;;2.13;0.80;;;23.80;69.40;;;;;;5070361;28;20467;-62
2021/11/03 01:15:46;;;;;;;;;;;23.80;69.10;;;;;;5066980;28;20052;-64
2021/11/03 01:18:14;;;;;;;3.55;0.70;;;23.80;68.60;;;;;;5069391;28;19916;-64
2021/11/03 01:20:43;;;;;;;3.72;1.13;;;23.80;68.80;;;;;;5071439;28;20035;-64
2021/11/03 01:23:11;;;;;;;4.85;1.25;;;23.80;68.40;;;;;;5070391;28;20229;-60
2021/11/03 01:25:39;;;;;;;3.03;0.77;;;23.80;69.30;;;;;;5066764;28;20024;-60
2021/11/03 01:28:06;;;;;;;3.00;0.90;;;23.80;69.10;;;;;;5068275;28;20032;-62
2021/11/03 01:30:34;;;;;;;3.42;1.10;;;23.80;69.10;;;;;;5070300;28;20037;-62
2021/11/03 01:33:02;;;;;;;2.97;1.02;;;23.90;68.30;;;;;;5069796;28;20035;-63
2021/11/03 01:35:30;;;;;;;3.13;0.73;;;23.90;68.20;;;;;;5071072;28;20024;-60
2021/11/03 01:37:58;;;;;;;3.92;1.00;;;24.00;67.70;;;;;;5066914;28;20028;-64
2021/11/03 01:40:31;;;;;;;7.40;1.30;;;23.90;67.60;;;;;;5070450;28;20024;-65
2021/11/03 01:42:58;;;;;;;3.08;0.90;;;24.00;68.10;;;;;;5070513;28;20032;-61
2021/11/03 01:45:27;;;;;;;4.53;1.20;;;24.00;67.60;;;;;;5070336;28;20074;-62
2021/11/03 01:48:10;;;;;;;3.50;0.75;;;24.00;68.00;;;;;;5066484;28;20463;-68
2021/11/03 01:50:47;;;;;;;3.28;0.75;;;23.90;68.40;;;;;;5070593;28;20040;-63
2021/11/03 01:53:22;;;;;;;4.55;0.60;;;23.90;68.60;;;;;;5069353;28;20029;-65
2021/11/03 01:55:54;;;;;;;3.55;1.00;;;23.90;68.00;;;;;;5068628;28;20049;-64
2021/11/03 01:58:33;;;;;;;3.85;1.30;;;23.90;68.50;;;;;;5068456;28;20024;-61
2021/11/03 02:01:01;;;;;;;5.25;0.90;;;23.90;67.60;;;;;;5069026;28;20082;-62
2021/11/03 02:03:29;;;;;;;3.83;0.88;;;23.90;67.40;;;;;;5069781;28;20036;-61
2021/11/03 02:06:05;;;;;;;2.35;1.00;;;24.00;67.40;;;;;;5068375;28;20699;-62
2021/11/03 02:08:34;;;;;;;2.40;0.80;;;24.00;67.60;;;;;;5071280;28;20051;-62
2021/11/03 02:11:02;;;;;;;2.35;0.80;;;24.10;67.50;;;;;;5066242;28;20574;-62
2021/11/03 02:13:30;;;;;;;5.65;1.50;;;24.00;67.90;;;;;;5067053;28;20051;-68
2021/11/03 02:15:58;;;;;;;3.53;1.23;;;23.90;69.10;;;;;;5070351;28;20032;-60
2021/11/03 02:18:26;;;;;;;4.03;1.60;;;23.90;68.40;;;;;;5069263;28;20025;-65
2021/11/03 02:20:54;;;;;;;3.03;1.80;;;23.90;68.30;;;;;;5068938;28;20038;-64
2021/11/03 02:23:45;;;;;;;4.95;1.70;;;23.90;68.90;;;;;;5069944;28;20081;-64
2021/11/03 02:26:19;;;;;;;2.72;1.27;;;23.90;69.30;;;;;;5060415;28;20072;-67
2021/11/03 02:28:48;;;;;;;3.10;1.88;;;23.90;69.00;;;;;;5067012;28;20025;-60
2021/11/03 02:31:37;;;;;;;4.15;1.88;;;23.90;68.50;;;;;;5068918;28;20036;-61
2021/11/03 02:34:08;;;;;;;3.88;1.40;;;24.00;69.00;;;;;;5052641;28;20484;-62
2021/11/03 02:36:48;;;;;;;4.85;1.52;;;24.00;69.50;;;;;;5052625;28;20119;-66
2021/11/03 02:39:18;;;;;;;5.25;1.73;;;24.00;69.30;;;;;;5052511;28;20029;-64
2021/11/03 02:41:46;;;;;;;3.67;1.52;;;24.00;69.80;;;;;;5052617;28;20086;-60
2021/11/03 02:44:16;;;;;;;7.13;2.25;;;24.10;68.50;;;;;;5052207;28;20025;-63
2021/11/03 02:46:44;;;;;;;5.57;2.50;;;24.10;69.80;;;;;;5051837;28;20028;-60
2021/11/03 02:49:11;;;;;;;6.63;2.67;;;24.10;69.50;;;;;;5052202;28;20035;-66
2021/11/03 02:51:44;;;;;;;5.20;2.35;;;24.20;68.90;;;;;;5051072;28;20079;-65
2021/11/03 02:54:19;;;;;;;24.05;21.33;;;24.10;69.30;;;;;;5051658;28;20161;-65
2021/11/03 02:56:49;;;;;;;10.65;6.95;;;24.10;69.60;;;;;;5052308;28;20120;-65
2021/11/03 02:59:19;;;;;;;8.18;6.05;;;24.20;68.60;;;;;;5050832;28;20060;-67
2021/11/03 03:01:50;;;;;;;5.60;2.88;;;24.20;68.60;;;;;;5051796;28;20021;-66
2021/11/03 03:04:23;;;;;;;6.32;4.03;;;24.20;68.30;;;;;;5052030;28;20037;-60
2021/11/03 03:06:51;;;;;;;3.95;2.65;;;24.20;69.00;;;;;;5051887;28;20353;-60
2021/11/03 03:09:19;;;;;;;7.68;3.40;;;24.20;68.90;;;;;;5052053;28;20036;-63
2021/11/03 03:11:50;;;;;;;4.90;2.88;;;24.20;68.50;;;;;;5051900;28;20024;-65
2021/11/03 03:14:21;;;;;;;6.68;3.90;;;24.20;68.30;;;;;;5051874;28;20025;-63
2021/11/03 03:16:52;;;;;;;9.40;4.85;;;24.10;67.90;;;;;;5051884;28;20127;-66
2021/11/03 03:19:19;;;;;;;8.40;4.97;;;24.10;69.10;;;;;;5051865;28;20021;-64
2021/11/03 03:21:47;;;;;;;4.75;3.15;;;24.10;69.20;;;;;;5051947;28;20079;-66
2021/11/03 03:24:16;;;;;;;6.72;3.10;;;24.10;68.40;;;;;;5051760;28;20021;-67
2021/11/03 03:26:47;;;;;;;8.88;3.80;;;24.10;69.50;;;;;;5052164;28;20480;-68
2021/11/03 03:29:14;;;;;;;9.15;4.50;;;24.10;69.50;;;;;;5052715;28;20029;-60
2021/11/03 03:31:42;;;;;;;5.90;3.80;;;24.10;69.00;;;;;;5052211;28;20025;-65
2021/11/03 03:34:15;;;;;;;6.25;2.90;;;24.10;68.70;;;;;;5051640;28;20060;-69
2021/11/03 03:36:44;;;;;;;6.70;3.97;;;24.00;68.90;;;;;;5053280;28;20104;-61
2021/11/03 03:39:14;;;;;;;3.58;2.17;;;24.10;69.00;;;;;;5055580;28;20490;-65
2021/11/03 03:41:43;;;;;;;4.57;2.72;;;24.10;68.10;;;;;;5055530;28;20087;-66
2021/11/03 03:44:11;;;;;;;3.22;2.30;;;24.10;68.20;;;;;;5055321;28;20021;-62
2021/11/03 03:46:38;;;;;;;4.75;2.92;;;24.00;69.00;;;;;;5054164;28;20078;-60
2021/11/03 03:49:06;;;;;;;4.85;2.47;;;24.00;68.70;;;;;;5055187;28;20091;-62
2021/11/03 03:51:34;;;;;;;7.38;2.95;;;24.00;69.50;;;;;;5056143;28;20490;-64
2021/11/03 03:54:05;;;;;;;5.00;2.65;;;24.00;68.90;;;;;;5055560;28;20039;-73
2021/11/03 03:56:32;;;;;;;5.22;2.33;;;24.00;68.30;;;;;;5055377;28;20058;-64
2021/11/03 03:58:59;;;;;;;4.10;2.53;;;24.00;68.00;;;;;;5055793;28;20100;-66
2021/11/03 04:01:28;;;;;;;4.00;2.22;;;24.10;68.30;;;;;;5055865;28;20108;-65
2021/11/03 04:03:56;;;;;;;5.10;1.70;;;24.00;68.30;;;;;;5055661;28;20036;-64
2021/11/03 04:06:23;;;;;;;4.80;1.85;;;24.00;68.20;;;;;;5055678;28;20032;-63
2021/11/03 04:08:51;;;;;;;3.42;1.90;;;24.00;68.30;;;;;;5055042;28;20472;-59
2021/11/03 04:11:18;;;;;;;3.75;2.25;;;24.10;67.20;;;;;;5054891;28;20079;-69
2021/11/03 04:13:46;;;;;;;6.18;1.95;;;24.10;68.10;;;;;;5055383;28;20429;-60
2021/11/03 04:16:13;;;;;;;4.07;2.00;;;24.10;67.60;;;;;;5055199;28;20025;-60
2021/11/03 04:18:41;;;;;;;2.67;1.77;;;24.10;68.10;;;;;;5055298;28;20029;-61
2021/11/03 04:21:09;;;;;;;3.40;1.77;;;24.10;67.80;;;;;;5054809;28;20043;-57
2021/11/03 04:23:36;;;;;;;5.13;1.45;;;24.10;68.10;;;;;;5055109;28;20040;-59
2021/11/03 04:26:05;;;;;;;11.02;2.03;;;24.00;67.70;;;;;;5054361;28;20029;-57
2021/11/03 04:28:33;;;;;;;5.90;2.13;;;24.10;67.40;;;;;;5054532;28;20497;-61
2021/11/03 04:31:00;;;;;;;7.90;2.13;;;24.00;67.30;;;;;;5054037;28;20120;-59
2021/11/03 04:33:28;;;;;;;5.15;2.03;;;24.00;67.90;;;;;;5054568;28;20109;-58
2021/11/03 04:35:55;;;;;;;2.08;1.40;;;24.00;67.90;;;;;;5053020;28;20361;-66
2021/11/03 04:38:22;;;;;;;6.00;1.75;;;24.00;68.20;;;;;;5054711;28;20017;-59
2021/11/03 04:40:50;;;;;;;2.60;1.23;;;24.00;68.20;;;;;;5054147;28;20132;-68
2021/11/03 04:43:17;;;;;;;4.90;1.70;;;23.90;68.20;;;;;;5054174;28;20052;-60
2021/11/03 04:45:45;;;;;;;3.05;1.17;;;23.90;68.50;;;;;;5054358;28;20494;-64
2021/11/03 04:48:12;;;;;;;3.83;1.50;;;23.90;68.90;;;;;;5053126;28;20035;-60
2021/11/03 04:50:39;;;;;;;4.70;1.88;;;23.90;68.40;;;;;;5054226;28;20116;-66
2021/11/03 04:53:07;;;;;;;3.75;1.83;;;23.90;69.00;;;;;;5054245;28;20017;-63
2021/11/03 04:55:35;;;;;;;6.25;1.70;;;23.90;68.80;;;;;;5053769;28;20055;-60
2021/11/03 04:58:02;;;;;;;5.00;1.42;;;23.80;68.80;;;;;;5053948;28;20127;-66
2021/11/03 05:00:31;;;;;;;5.70;1.38;;;23.80;67.90;;;;;;5054383;28;20075;-61
2021/11/03 05:02:59;;;;;;;2.50;1.40;;;23.80;69.00;;;;;;5054384;28;20021;-63
2021/11/03 05:05:26;;;;;;;3.72;1.55;;;23.80;69.00;;;;;;5054293;28;20067;-66
2021/11/03 05:07:54;;;;;;;6.05;1.20;;;23.80;69.10;;;;;;5054562;28;20025;-59
2021/11/03 05:10:22;;;;;;;2.70;1.40;;;23.80;69.00;;;;;;5053762;28;20614;-64
2021/11/03 05:12:50;;;;;;;3.80;1.45;;;23.70;68.80;;;;;;5053726;28;20045;-64
2021/11/03 05:15:17;;;;;;;5.22;1.30;;;23.80;68.70;;;;;;5054040;28;20463;-63
2021/11/03 05:17:44;;;;;;;1.75;1.00;;;23.70;68.60;;;;;;5054149;28;20036;-67
2021/11/03 05:20:14;;;;;;;4.32;1.40;;;23.70;69.50;;;;;;5053768;28;20139;-62
2021/11/03 05:22:41;;;;;;;6.03;1.55;;;23.70;69.00;;;;;;5053763;28;20025;-59
2021/11/03 05:25:10;;;;;;;3.90;1.33;;;23.70;68.80;;;;;;5053696;28;20033;-61
2021/11/03 05:27:37;;;;;;;3.17;1.50;;;23.70;68.50;;;;;;5053425;28;20443;-59
2021/11/03 05:30:05;;;;;;;4.60;1.73;;;23.70;68.80;;;;;;5053237;28;20076;-66
2021/11/03 05:32:32;;;;;;;3.17;1.30;;;23.60;68.90;;;;;;5057967;28;20161;-71
2021/11/03 05:35:00;;;;;;;3.30;1.30;;;23.60;69.60;;;;;;5073413;28;20029;-62
2021/11/03 05:37:27;;;;;;;3.65;1.17;;;23.60;69.60;;;;;;5073168;28;20024;-64
2021/11/03 05:39:55;;;;;;;7.13;1.63;;;23.50;69.80;;;;;;5073086;28;20021;-65
2021/11/03 05:42:23;;;;;;;3.78;1.55;;;23.50;70.00;;;;;;5073265;28;20115;-63
2021/11/03 05:44:50;;;;;;;2.10;0.98;;;23.50;69.70;;;;;;5073643;28;20025;-61
2021/11/03 05:47:24;;;;;;;3.13;1.25;;;23.50;69.60;;;;;;5073133;28;20082;-63
2021/11/03 05:49:52;;;;;;;2.47;1.10;;;23.50;70.00;;;;;;5073353;28;20040;-63
2021/11/03 05:52:20;;;;;;;3.78;1.27;;;23.40;69.80;;;;;;5073274;28;20021;-62
2021/11/03 05:54:47;;;;;;;5.68;1.17;;;23.20;65.70;;;;;;5072974;28;20063;-67
2021/11/03 05:57:24;;;;;;;5.07;2.10;;;22.80;69.00;;;;;;5072429;28;20024;-62
2021/11/03 05:59:54;;;;;;;7.18;1.52;;;22.90;72.60;;;;;;5072553;28;20029;-65
2021/11/03 06:02:23;;;;;;;7.80;1.30;;;23.10;71.20;;;;;;5072853;28;20490;-65
2021/11/03 06:04:50;;;;;;;11.57;1.65;;;23.00;70.10;;;;;;5072703;28;20050;-64
2021/11/03 06:07:21;;;;;;;9.02;1.35;;;22.80;73.50;;;;;;5072790;28;20453;-61
2021/11/03 06:09:49;;;;;;;6.07;1.38;;;22.80;69.10;;;;;;5072269;28;20028;-63
2021/11/03 06:12:16;;;;;;;9.82;2.28;;;22.80;74.40;;;;;;5070788;28;20033;-63
2021/11/03 06:14:44;;;;;;;7.13;1.65;;;22.90;71.90;;;;;;5071303;28;20494;-63
2021/11/03 06:17:11;;;;;;;11.18;1.38;;;23.00;69.50;;;;;;5072965;28;20038;-65
2021/11/03 06:19:38;;;;;;;9.27;2.25;;;22.90;69.60;;;;;;5073117;28;20020;-63
2021/11/03 06:22:06;;;;;;;10.43;1.77;;;23.00;70.10;;;;;;5072340;28;20177;-66
2021/11/03 06:24:34;;;;;;;7.13;1.63;;;22.80;70.40;;;;;;5071412;28;20036;-56
2021/11/03 06:27:04;;;;;;;11.20;1.75;;;22.60;74.50;;;;;;5071237;28;20118;-65
2021/11/03 06:29:31;;;;;;;15.85;3.50;;;23.10;71.20;;;;;;5072839;28;20467;-69
2021/11/03 06:31:58;;;;;;;20.13;1.65;;;23.00;69.40;;;;;;5072467;28;20040;-62
2021/11/03 06:34:26;;;;;;;12.52;2.33;;;22.90;75.20;;;;;;5072035;28;20043;-67
2021/11/03 06:36:53;;;;;;;7.47;1.83;;;22.90;73.40;;;;;;5072650;28;20099;-68
2021/11/03 06:39:21;;;;;;;9.25;1.67;;;22.80;75.30;;;;;;5072427;28;20027;-65
2021/11/03 06:41:49;;;;;;;8.93;2.20;;;22.60;70.90;;;;;;5072464;28;20024;-67
2021/11/03 06:44:17;;;;;;;11.52;1.90;;;22.50;72.40;;;;;;5072297;28;20020;-65
2021/11/03 06:46:44;;;;;;;10.65;1.88;;;22.30;73.00;;;;;;5072001;28;20048;-69
2021/11/03 06:49:12;;;;;;;12.00;1.52;;;22.60;71.80;;;;;;5072166;28;20032;-62
2021/11/03 06:51:39;;;;;;;9.18;1.58;;;22.50;71.60;;;;;;5072447;28;20024;-63
2021/11/03 06:54:07;;;;;;;13.77;2.65;;;22.80;74.20;;;;;;5072553;28;20020;-63
2021/11/03 06:56:34;;;;;;;13.80;1.83;;;23.00;71.80;;;;;;5070979;28;20052;-64
2021/11/03 06:59:02;;;;;;;14.80;1.67;;;23.00;73.90;;;;;;5072514;28;20028;-65
2021/11/03 07:01:30;;;;;;;6.60;1.80;;;22.40;72.90;;;;;;5072427;28;20525;-70
2021/11/03 07:04:07;;;;;;;9.55;2.28;;;22.40;74.20;;;;;;5072184;28;20085;-64
2021/11/03 07:06:39;;;;;;;16.58;1.90;;;22.40;74.60;;;;;;5071472;28;20098;-65
2021/11/03 07:09:07;;;;;;;16.08;2.75;;;22.80;75.70;;;;;;5071520;28;20020;-60
2021/11/03 07:11:35;;;;;;;21.48;1.95;;;22.60;76.70;;;;;;5053664;28;20337;-62
2021/11/03 07:14:02;;;;;;;9.95;1.60;;;22.70;76.80;;;;;;5072130;28;20031;-58
2021/11/03 07:16:30;;;;;;;9.10;1.90;;;22.90;76.90;;;;;;5072481;28;20028;-60
2021/11/03 07:18:57;;;;;;;9.85;2.10;;;23.00;76.30;;;;;;5071692;28;20017;-63
2021/11/03 07:21:24;;;;;;;12.60;2.78;;;23.10;76.20;;;;;;5072023;28;20028;-62
2021/11/03 07:23:52;;;;;;;11.18;1.98;;;23.10;76.00;;;;;;5072248;28;20039;-62
2021/11/03 07:26:19;;;;;;;11.00;2.10;;;23.00;76.60;;;;;;5071475;28;20036;-57
2021/11/03 07:28:47;;;;;;;10.60;1.58;;;23.10;77.60;;;;;;5071802;28;20048;-58
2021/11/03 07:31:18;;;;;;;7.07;1.98;;;23.00;76.50;;;;;;5071729;28;20119;-59
2021/11/03 07:33:46;;;;;;;5.93;1.65;;;23.10;76.60;;;;;;5071730;28;20104;-63
2021/11/03 07:36:16;;;;;;;6.47;2.08;;;23.10;77.70;;;;;;5071966;28;20028;-59
2021/11/03 07:38:43;;;;;;;13.98;2.90;;;23.10;77.80;;;;;;5071744;28;20028;-59
2021/11/03 07:41:14;;;;;;;11.52;2.83;;;23.00;76.10;;;;;;5069599;28;20029;-60
2021/11/03 07:43:44;;;;;;;9.90;2.50;;;22.80;76.40;;;;;;5071896;28;20487;-57
2021/11/03 07:46:19;;;;;;;12.82;2.72;;;22.40;77.10;;;;;;5071739;28;20035;-61
2021/11/03 07:48:47;;;;;;;9.30;1.75;;;22.20;76.90;;;;;;5071989;28;20032;-63
2021/11/03 07:51:17;;;;;;;10.90;2.25;;;22.10;80.10;;;;;;5071416;28;20029;-57
2021/11/03 07:53:45;;;;;;;14.02;2.60;;;22.00;77.50;;;;;;5071455;28;20036;-59
2021/11/03 07:56:34;;;;;;;13.68;2.20;;;21.90;79.40;;;;;;5071247;28;20051;-59
2021/11/03 07:59:02;;;;;;;7.82;2.20;;;22.10;79.00;;;;;;5070732;28;20020;-61
2021/11/03 08:01:30;;;;;;;13.55;2.38;;;22.20;79.50;;;;;;5071683;28;20111;-60
2021/11/03 08:03:58;;;;;;;15.55;2.88;;;22.10;81.00;;;;;;5071503;28;20066;-63
2021/11/03 08:06:25;;;;;;;13.65;3.28;;;22.10;77.70;;;;;;5071725;28;20055;-62
2021/11/03 08:09:04;;;;;;;19.27;5.75;;;22.10;80.50;;;;;;5071433;28;20029;-64
2021/11/03 08:11:46;;;;;;;10.38;3.35;;;22.20;83.00;;;;;;5071341;28;20037;-64
2021/11/03 08:14:15;;;;;;;11.00;2.97;;;22.30;78.70;;;;;;5071402;28;20016;-64
2021/11/03 08:17:03;;;;;;;11.65;2.50;;;22.10;78.00;;;;;;5071566;28;20087;-64
2021/11/03 08:19:37;;;;;;;8.85;2.95;;;21.90;79.70;;;;;;5071720;28;20050;-63
2021/11/03 08:22:04;;;;;;;17.13;2.67;;;22.00;80.30;;;;;;5071757;28;20100;-63
2021/11/03 08:24:32;;;;;;;17.90;2.83;;;22.00;79.50;;;;;;5074719;28;20040;-63
2021/11/03 08:26:59;;;;;;;22.85;4.53;;;22.00;81.70;;;;;;5074779;28;20035;-62
2021/11/03 08:29:27;;;;;;;15.00;3.28;;;22.10;82.40;;;;;;5074510;28;20059;-63
2021/11/03 08:31:57;;;;;;;18.58;3.08;;;22.10;84.40;;;;;;5072503;28;20033;-63
2021/11/03 08:34:31;;;;;;;16.83;2.25;;;22.10;81.40;;;;;;5074809;28;20483;-65
2021/11/03 08:37:04;;;;;;;12.30;2.13;;;22.00;80.90;;;;;;5075394;28;20152;-62
2021/11/03 08:39:33;;;;;;;11.52;2.40;;;21.80;81.90;;;;;;5075059;28;20480;-63
2021/11/03 08:42:01;;;;;;;13.70;2.92;;;21.80;81.30;;;;;;5074221;28;20096;-62
2021/11/03 08:44:29;;;;;;;13.13;2.35;;;21.70;80.40;;;;;;5075217;28;20035;-61
2021/11/03 08:46:57;;;;;;;14.48;2.53;;;21.50;80.90;;;;;;5074869;28;20443;-63
2021/11/03 08:49:24;;;;;;;13.73;2.47;;;21.60;82.70;;;;;;5074128;28;20105;-64
2021/11/03 08:51:51;;;;;;;13.27;2.50;;;21.60;81.90;;;;;;5074346;28;20040;-62
2021/11/03 08:54:19;;;;;;;10.45;2.28;;;21.50;81.60;;;;;;5074357;28;20104;-63
2021/11/03 08:56:47;;;;;;;7.78;1.88;;;21.50;81.50;;;;;;5074475;28;20115;-63
2021/11/03 08:59:14;;;;;;;11.75;2.17;;;21.40;83.30;;;;;;5074200;28;20115;-65
2021/11/03 09:01:44;;;;;;;14.88;2.33;;;21.50;83.50;;;;;;5074420;28;20040;-62
2021/11/03 09:04:12;;;;;;;9.20;2.10;;;21.40;82.60;;;;;;5074931;28;20048;-65
2021/11/03 09:06:39;;;;;;;10.70;1.83;;;21.30;82.10;;;;;;5074317;28;20036;-68
2021/11/03 09:09:08;;;;;;;12.88;2.10;;;21.30;82.30;;;;;;5074157;28;20017;-64
2021/11/03 09:11:35;;;;;;;10.77;2.08;;;21.30;83.40;;;;;;5074203;28;20028;-62
2021/11/03 09:14:05;;;;;;;9.75;2.15;;;21.40;82.80;;;;;;5074196;28;20020;-62
2021/11/03 09:16:33;;;;;;;11.02;2.08;;;21.40;82.00;;;;;;5074084;28;20077;-64
2021/11/03 09:19:00;;;;;;;13.32;2.08;;;21.30;81.80;;;;;;5074337;28;20108;-63
2021/11/03 09:21:28;;;;;;;12.60;2.22;;;21.40;82.90;;;;;;5074130;28;20032;-62
2021/11/03 09:23:55;;;;;;;9.50;2.10;;;21.40;81.90;;;;;;5074419;28;20379;-66
2021/11/03 09:26:23;;;;;;;10.98;1.98;;;21.30;81.70;;;;;;5074329;28;20021;-64
2021/11/03 09:28:52;;;;;;;10.25;2.70;;;21.40;82.70;;;;;;5074322;28;20027;-64
2021/11/03 09:31:19;;;;;;;9.90;2.60;;;21.50;83.70;;;;;;5069340;28;20036;-62
2021/11/03 09:33:47;;;;;;;11.90;3.33;;;21.60;83.30;;;;;;5066804;28;20548;-61
2021/11/03 09:36:20;;;;;;;14.15;2.65;;;21.70;84.30;;;;;;5068999;28;20024;-63
2021/11/03 09:38:48;;;;;;;11.68;2.72;;;21.80;84.10;;;;;;5066887;28;20028;-61
2021/11/03 09:41:25;;;;;;;11.68;2.33;;;21.80;83.70;;;;;;5069983;28;20074;-63
2021/11/03 09:44:09;;;;;;;9.82;2.58;;;21.90;82.70;;;;;;5071175;28;20036;-65
2021/11/03 09:46:41;;;;;;;19.13;6.55;;;22.00;82.20;;;;;;5066806;28;20065;-60
2021/11/03 09:49:32;;;;;;;43.25;19.80;;;22.00;82.00;;;;;;5066684;28;20360;-62
2021/11/03 09:52:11;;;;;;;58.85;30.58;;;22.00;81.70;;;;;;5064269;28;20075;-64
2021/11/03 09:54:39;;;;;;;73.38;43.78;;;22.00;81.50;;;;;;5070458;28;20070;-63
2021/11/03 09:57:21;;;;;;;103.72;57.75;;;22.10;81.50;;;;;;5068295;28;20035;-67
2021/11/03 10:00:06;;;;;;;119.38;72.70;;;22.10;81.50;;;;;;5064859;28;20029;-64
2021/11/03 10:02:44;;;;;;;145.95;84.20;;;22.10;81.30;;;;;;5069715;28;20028;-67
2021/11/03 10:05:21;;;;;;;162.52;95.78;;;22.10;81.30;;;;;;5068855;28;20032;-65
2021/11/03 10:08:10;;;;;;;153.43;92.03;;;22.10;81.40;;;;;;5069871;28;20375;-69
2021/11/03 10:10:39;;;;;;;155.27;93.43;;;22.10;81.20;;;;;;5067769;28;20408;-67
2021/11/03 10:13:25;;;;;;;144.52;88.60;;;22.20;81.20;;;;;;5069607;28;20462;-62
2021/11/03 10:16:15;;;;;;;135.32;81.93;;;22.10;81.00;;;;;;5071648;28;20032;-64
2021/11/03 10:19:07;;;;;;;139.82;85.28;;;22.10;80.90;;;;;;5066159;28;20068;-65
2021/11/03 10:21:40;;;;;;;164.05;97.85;;;22.10;81.10;;;;;;5070658;28;20031;-62
2021/11/03 10:24:33;;;;;;;147.82;91.75;;;22.10;81.20;;;;;;5069471;28;20364;-60
2021/11/03 10:27:11;;;;;;;143.00;87.35;;;22.10;81.00;;;;;;5069937;28;20020;-62
2021/11/03 10:30:17;;;;;;;145.77;87.90;;;22.10;81.00;;;;;;5066828;28;20036;-65
2021/11/03 10:32:45;;;;;;;142.13;85.22;;;22.10;81.10;;;;;;5069426;28;20060;-62
2021/11/03 10:35:52;;;;;;;135.93;85.22;;;22.10;81.10;;;;;;5068789;28;20336;-59
2021/11/03 10:38:22;;;;;;;116.97;71.55;;;22.10;81.10;;;;;;5062939;28;20482;-62
2021/11/03 10:40:58;;;;;;;129.07;78.25;;;22.00;81.20;;;;;;5070140;28;20036;-57
2021/11/03 10:43:36;;;;;;;134.57;79.50;;;22.00;81.40;;;;;;5068495;28;20052;-59
2021/11/03 10:46:29;;;;;;;122.93;74.72;;;22.10;81.50;;;;;;5069026;28;20027;-62
2021/11/03 10:49:31;;;;;;;118.68;75.13;;;22.10;81.40;;;;;;5065280;28;20071;-61
2021/11/03 10:52:20;;;;;;;107.97;66.05;;;22.10;81.50;;;;;;5068099;28;20029;-62
2021/11/03 10:54:55;;;;;;;111.28;67.20;;;22.10;81.60;;;;;;5065328;28;20040;-61
2021/11/03 10:57:37;;;;;;;113.55;72.38;;;22.00;81.50;;;;;;5068707;28;20090;-63
2021/11/03 11:00:32;;;;;;;108.13;68.43;;;22.00;81.50;;;;;;5065709;28;20487;-61
2021/11/03 11:03:13;;;;;;;104.88;61.88;;;22.10;81.60;;;;;;5059917;28;20031;-62
2021/11/03 11:05:51;;;;;;;96.55;63.17;;;22.00;81.50;;;;;;5070006;28;20636;-64
2021/11/03 11:08:24;;;;;;;99.85;65.32;;;22.00;81.50;;;;;;5062511;28;20062;-61
2021/11/03 11:10:58;;;;;;;100.35;60.78;;;22.00;81.60;;;;;;5069452;28;20036;-59
2021/11/03 11:13:29;;;;;;;105.30;65.22;;;22.00;81.50;;;;;;5068725;28;20029;-62
2021/11/03 11:16:08;;;;;;;95.00;60.53;;;22.00;81.60;;;;;;5068490;28;20048;-63
2021/11/03 11:18:49;;;;;;;100.35;60.42;;;22.00;81.50;;;;;;5066913;28;20356;-62
2021/11/03 11:21:21;;;;;;;98.45;60.67;;;22.00;81.60;;;;;;5066149;28;20119;-60
2021/11/03 11:24:25;;;;;;;97.63;61.03;;;22.10;81.60;;;;;;5065907;28;20024;-58
2021/11/03 11:27:05;;;;;;;90.47;56.22;;;22.10;81.50;;;;;;5064428;28;20025;-59
2021/11/03 11:29:44;;;;;;;84.75;54.97;;;22.10;81.50;;;;;;5064960;28;20028;-61
2021/11/03 11:32:55;;;;;;;83.50;52.70;;;22.10;81.50;;;;;;5069761;28;20037;-62
2021/11/03 11:35:28;;;;;;;81.43;49.83;;;22.10;81.50;;;;;;5069473;28;20138;-61
2021/11/03 11:38:15;;;;;;;79.55;49.08;;;22.00;81.40;;;;;;5067230;28;20029;-60
2021/11/03 11:40:57;;;;;;;82.05;50.65;;;22.10;81.30;;;;;;5069398;28;20038;-62
2021/11/03 11:43:36;;;;;;;77.75;47.72;;;22.00;81.30;;;;;;5066873;28;20044;-62
2021/11/03 11:46:14;;;;;;;76.38;47.70;;;22.00;81.20;;;;;;5071562;28;20029;-66
2021/11/03 11:48:46;;;;;;;78.05;47.47;;;22.00;81.20;;;;;;5070948;28;20035;-66
2021/11/03 11:51:36;;;;;;;71.53;44.92;;;22.00;81.20;;;;;;5071872;28;20029;-65
2021/11/03 11:54:21;;;;;;;66.50;42.95;;;22.00;81.30;;;;;;5071750;28;20037;-66
2021/11/03 11:57:12;;;;;;;69.72;44.53;;;22.00;81.30;;;;;;5072293;28;20094;-65
2021/11/03 12:00:16;;;;;;;66.00;40.90;;;22.00;81.30;;;;;;5067074;28;20044;-62
2021/11/03 12:02:52;;;;;;;66.22;39.22;;;22.00;81.30;;;;;;5076416;28;20054;-61
2021/11/03 12:05:22;;;;;;;61.30;38.83;;;22.00;81.40;;;;;;5076426;28;20429;-60
2021/11/03 12:08:11;;;;;;;64.07;39.08;;;22.00;81.40;;;;;;5075839;28;20027;-54
2021/11/03 12:11:01;;;;;;;61.20;37.80;;;22.00;81.40;;;;;;5074522;28;20491;-61
2021/11/03 12:13:41;;;;;;;55.65;35.40;;;22.00;81.40;;;;;;5074436;28;20043;-62
2021/11/03 12:16:14;;;;;;;57.15;34.25;;;22.00;81.40;;;;;;5066732;28;20024;-65
2021/11/03 12:18:52;;;;;;;52.58;35.75;;;22.00;81.50;;;;;;5075241;28;20533;-63
2021/11/03 12:21:25;;;;;;;62.58;38.65;;;21.90;81.30;;;;;;5071932;28;20507;-62
2021/11/03 12:24:07;;;;;;;55.85;36.40;;;21.90;81.30;;;;;;5074697;28;20025;-61
2021/11/03 12:26:36;;;;;;;;;;;21.90;81.30;;;;;;5075597;28;20111;-64
2021/11/03 12:29:15;;;;;;;57.40;39.72;;;21.90;81.30;;;;;;5075100;28;19908;-62
2021/11/03 12:31:51;;;;;;;58.50;38.35;;;21.90;81.30;;;;;;5074703;28;20155;-65
2021/11/03 12:34:18;;;;;;;62.97;40.00;;;21.90;81.30;;;;;;5073418;28;20029;-66
2021/11/03 12:37:08;;;;;;;54.67;37.38;;;21.90;81.50;;;;;;5063991;28;20039;-61
2021/11/03 12:39:57;;;;;;;54.22;36.08;;;21.90;81.20;;;;;;5071794;28;20127;-63
2021/11/03 12:42:31;;;;;;;62.03;38.65;;;21.80;81.10;;;;;;5070264;28;20039;-62
2021/11/03 12:45:18;;;;;;;54.08;34.30;;;21.90;81.40;;;;;;5072367;28;20040;-61
2021/11/03 12:47:55;;;;;;;48.58;32.03;;;21.80;81.20;;;;;;5070829;28;20105;-56
2021/11/03 12:50:30;;;;;;;46.83;29.00;;;21.80;81.30;;;;;;5068494;28;20048;-66
2021/11/03 12:53:22;;;;;;;44.50;31.02;;;21.90;81.30;;;;;;5072642;28;20031;-60
2021/11/03 12:55:52;;;;;;;;;;;21.90;81.40;;;;;;5069409;28;20110;-60
2021/11/03 12:58:28;;;;;;;44.08;29.63;;;21.80;81.30;;;;;;5069495;28;19908;-55
2021/11/03 13:00:57;;;;;;;47.15;28.88;;;21.80;81.30;;;;;;5071569;28;20115;-59
2021/11/03 13:03:29;;;;;;;43.50;28.23;;;21.80;81.20;;;;;;5072024;28;20043;-62
2021/11/03 13:05:59;;;;;;;38.85;25.60;;;21.80;81.30;;;;;;5072572;28;20025;-61